Time;durP1;ratioP1;P1;durP2;ratioP2;P2;SDS_P1;SDS_P2;PMS_P1;PMS_P2;Temp;Humidity;BMP_temperature;BMP_pressure;BME280_temperature;BME280_humidity;BME280_pressure;Samples;Min_cycle;Max_cycle;Signal;HPM_P1;HPM_P2
2023/10/30 00:00:56;;;;;;;6.30;2.50;;;;;;;12.35;100.00;101108.10;110099;1239;59986;-69
2023/10/30 00:03:37;;;;;;;6.80;2.60;;;;;;;12.25;100.00;101105.57;110040;1238;63234;-69
2023/10/30 00:06:06;;;;;;;5.00;2.60;;;;;;;12.14;100.00;101111.91;110040;1241;60098;-69
2023/10/30 00:08:35;;;;;;;5.40;2.30;;;;;;;12.08;100.00;101110.77;110042;1241;57967;-68
2023/10/30 00:11:04;;;;;;;4.70;2.60;;;;;;;12.07;100.00;101102.50;109790;1238;73546;-68
2023/10/30 00:13:32;;;;;;;6.00;2.50;;;;;;;11.98;100.00;101104.90;110050;1238;72522;-69
2023/10/30 00:16:01;;;;;;;6.40;2.50;;;;;;;12.02;100.00;101101.97;110026;1238;61456;-69
2023/10/30 00:18:30;;;;;;;5.90;2.60;;;;;;;12.12;100.00;101109.61;110083;1238;62407;-70
2023/10/30 00:20:59;;;;;;;6.00;2.50;;;;;;;12.12;100.00;101108.09;110062;1238;57327;-69
2023/10/30 00:23:28;;;;;;;5.10;2.60;;;;;;;12.05;100.00;101112.21;110073;1238;60077;-70
2023/10/30 00:25:57;;;;;;;5.80;2.50;;;;;;;11.93;100.00;101112.75;110076;1238;63319;-70
2023/10/30 00:28:28;;;;;;;4.60;2.30;;;;;;;11.86;100.00;101106.95;110059;1240;61458;-70
2023/10/30 00:30:57;;;;;;;5.20;2.60;;;;;;;11.74;100.00;101102.92;110076;1238;70414;-70
2023/10/30 00:33:25;;;;;;;5.90;2.50;;;;;;;11.69;100.00;101105.39;110038;1238;73754;-69
2023/10/30 00:35:54;;;;;;;5.30;2.40;;;;;;;11.59;100.00;101108.65;109926;1241;60850;-69
2023/10/30 00:38:24;;;;;;;5.10;2.60;;;;;;;11.43;100.00;101105.61;110043;1241;57165;-69
2023/10/30 00:40:53;;;;;;;6.80;2.60;;;;;;;11.32;100.00;101110.02;109950;1238;73341;-71
2023/10/30 00:43:22;;;;;;;5.00;2.30;;;;;;;11.20;100.00;101104.95;110037;1238;61834;-70
2023/10/30 00:45:51;;;;;;;5.00;2.50;;;;;;;11.18;100.00;101101.58;110070;1238;70344;-69
2023/10/30 00:48:22;;;;;;;7.10;2.70;;;;;;;11.15;100.00;101098.86;110054;1238;63349;-70
2023/10/30 00:50:51;;;;;;;5.80;2.60;;;;;;;11.08;100.00;101102.79;110057;1241;58124;-70
2023/10/30 00:53:20;;;;;;;4.40;2.70;;;;;;;10.99;100.00;101107.06;110000;1238;57538;-70
2023/10/30 00:55:50;;;;;;;7.70;2.90;;;;;;;10.92;100.00;101108.08;109997;1238;63615;-68
2023/10/30 00:58:20;;;;;;;4.90;2.30;;;;;;;10.87;100.00;101105.63;110090;1238;61390;-70
2023/10/30 01:00:49;;;;;;;5.60;2.50;;;;;;;10.87;100.00;101104.39;109967;1238;69607;-69
2023/10/30 01:03:23;;;;;;;8.20;2.60;;;;;;;10.90;100.00;101105.26;109996;1238;73712;-69
2023/10/30 01:05:59;;;;;;;5.90;2.70;;;;;;;10.92;100.00;101102.83;109953;1241;58355;-69
2023/10/30 01:08:28;;;;;;;7.40;2.50;;;;;;;10.92;100.00;101102.73;109670;1245;58307;-69
2023/10/30 01:10:57;;;;;;;6.10;2.50;;;;;;;10.87;100.00;101104.73;110124;1238;63511;-69
2023/10/30 01:13:26;;;;;;;4.80;2.60;;;;;;;10.86;100.00;101105.52;109948;1238;70508;-69
2023/10/30 01:15:56;;;;;;;5.70;2.80;;;;;;;10.88;100.00;101098.23;109944;1238;69912;-70
2023/10/30 01:18:25;;;;;;;5.60;2.70;;;;;;;10.87;100.00;101094.81;109994;1238;74390;-69
2023/10/30 01:20:55;;;;;;;5.70;2.70;;;;;;;10.86;100.00;101088.75;109788;1242;57800;-72
2023/10/30 01:23:23;;;;;;;5.40;2.70;;;;;;;10.81;100.00;101088.77;109725;1238;61023;-69
2023/10/30 01:25:52;;;;;;;5.90;3.40;;;;;;;10.75;100.00;101089.55;109937;1241;64040;-70
2023/10/30 01:28:21;;;;;;;6.10;2.70;;;;;;;10.71;100.00;101092.78;109975;1239;72589;-69
2023/10/30 01:30:49;;;;;;;6.30;2.90;;;;;;;10.66;100.00;101086.27;109814;1238;70637;-69
2023/10/30 01:33:19;;;;;;;5.60;2.70;;;;;;;10.69;100.00;101080.00;109887;1240;63519;-70
2023/10/30 01:35:48;;;;;;;6.90;2.50;;;;;;;10.79;100.00;101081.39;110007;1240;58354;-69
2023/10/30 01:38:17;;;;;;;6.30;3.10;;;;;;;10.94;100.00;101079.21;110044;1238;61107;-71
2023/10/30 01:40:50;;;;;;;6.10;3.60;;;;;;;11.03;100.00;101082.23;110006;1238;74591;-69
2023/10/30 01:43:30;;;;;;;8.50;3.70;;;;;;;11.05;100.00;101083.48;109907;1241;71955;-69
2023/10/30 01:46:00;;;;;;;8.30;3.50;;;;;;;11.04;100.00;101081.30;109703;1238;69844;-69
2023/10/30 01:48:32;;;;;;;7.30;3.30;;;;;;;11.02;100.00;101077.09;109797;1238;74231;-69
2023/10/30 01:51:04;;;;;;;5.80;3.00;;;;;;;10.97;100.00;101085.77;109902;1241;58392;-70
2023/10/30 01:53:35;;;;;;;8.30;4.30;;;;;;;10.92;100.00;101086.85;110039;1238;57764;-69
2023/10/30 01:56:05;;;;;;;6.80;4.10;;;;;;;10.86;100.00;101084.59;109961;1241;62776;-70
2023/10/30 01:58:34;;;;;;;6.60;3.80;;;;;;;10.84;100.00;101087.04;110026;1240;61419;-69
2023/10/30 02:01:04;;;;;;;7.50;4.30;;;;;;;10.75;100.00;101086.75;109786;1242;59045;-70
2023/10/30 02:03:34;;;;;;;11.20;5.20;;;;;;;10.68;100.00;101090.36;109782;1238;73543;-69
2023/10/30 02:06:03;;;;;;;9.60;5.00;;;;;;;10.63;100.00;101091.39;110061;1241;63367;-69
2023/10/30 02:08:32;;;;;;;6.20;3.90;;;;;;;10.51;100.00;101092.86;110068;1238;57698;-69
2023/10/30 02:11:01;;;;;;;5.90;3.80;;;;;;;10.39;100.00;101091.95;110058;1238;63765;-69
2023/10/30 02:13:30;;;;;;;8.70;4.00;;;;;;;10.38;100.00;101097.73;110107;1238;71077;-68
2023/10/30 02:15:58;;;;;;;7.60;3.90;;;;;;;10.32;100.00;101103.86;110182;1238;70011;-69
2023/10/30 02:18:27;;;;;;;8.20;4.10;;;;;;;10.23;100.00;101107.92;110214;1238;74227;-68
2023/10/30 02:20:56;;;;;;;6.30;4.00;;;;;;;10.16;100.00;101106.96;110228;1241;57707;-68
2023/10/30 02:23:25;;;;;;;6.60;3.70;;;;;;;10.11;100.00;101103.29;110153;1238;57794;-67
2023/10/30 02:25:53;;;;;;;7.30;3.80;;;;;;;10.03;100.00;101099.25;110252;1238;73437;-69
2023/10/30 02:28:23;;;;;;;8.60;4.40;;;;;;;9.94;100.00;101095.66;110271;1238;62165;-69
2023/10/30 02:30:51;;;;;;;7.70;3.90;;;;;;;9.86;100.00;101097.42;110214;1240;60384;-69
2023/10/30 02:33:20;;;;;;;8.20;4.30;;;;;;;9.70;100.00;101104.14;110243;1241;63049;-69
2023/10/30 02:35:49;;;;;;;8.70;4.00;;;;;;;9.51;100.00;101109.80;110273;1240;58277;-69
2023/10/30 02:38:18;;;;;;;8.80;3.80;;;;;;;9.43;100.00;101113.44;110237;1238;60948;-68
2023/10/30 02:40:46;;;;;;;7.00;3.60;;;;;;;9.42;100.00;101109.35;110135;1239;64634;-69
2023/10/30 02:43:15;;;;;;;7.60;3.40;;;;;;;9.39;100.00;101111.10;110000;1241;61592;-70
2023/10/30 02:45:44;;;;;;;7.30;3.20;;;;;;;9.31;100.00;101106.21;109808;1238;69898;-70
2023/10/30 02:48:12;;;;;;;5.50;3.40;;;;;;;9.20;100.00;101110.65;109850;1238;73080;-70
2023/10/30 02:50:43;;;;;;;9.90;4.00;;;;;;;9.17;100.00;101108.22;109886;1240;58364;-69
2023/10/30 02:53:12;;;;;;;6.20;3.70;;;;;;;9.17;100.00;101107.89;109898;1238;59402;-69
2023/10/30 02:55:41;;;;;;;5.70;3.80;;;;;;;9.13;100.00;101103.09;109979;1240;62791;-69
2023/10/30 02:58:10;;;;;;;7.60;4.00;;;;;;;9.06;100.00;101100.05;110050;1238;73163;-69
2023/10/30 03:00:39;;;;;;;8.40;4.20;;;;;;;8.98;100.00;101102.75;110017;1238;70541;-69
2023/10/30 03:03:09;;;;;;;10.80;4.30;;;;;;;8.97;100.00;101106.33;109932;1238;73393;-68
2023/10/30 03:05:38;;;;;;;7.50;4.00;;;;;;;8.93;100.00;101113.00;110017;1241;58260;-68
2023/10/30 03:08:07;;;;;;;9.00;4.70;;;;;;;8.90;100.00;101112.48;109813;1238;58222;-69
2023/10/30 03:10:35;;;;;;;9.90;5.00;;;;;;;8.87;100.00;101109.52;110000;1238;73307;-68
2023/10/30 03:13:04;;;;;;;9.60;4.50;;;;;;;8.80;100.00;101109.61;109920;1241;62393;-68
2023/10/30 03:15:33;;;;;;;8.40;4.80;;;;;;;8.72;100.00;101112.63;110030;1238;68451;-68
2023/10/30 03:18:02;;;;;;;9.10;4.00;;;;;;;8.63;100.00;101115.23;109930;1238;72810;-69
2023/10/30 03:20:30;;;;;;;9.00;4.40;;;;;;;8.56;100.00;101116.89;109946;1239;62305;-71
2023/10/30 03:22:59;;;;;;;7.60;4.50;;;;;;;8.50;100.00;101111.83;109984;1239;57755;-68
2023/10/30 03:25:28;;;;;;;9.70;4.30;;;;;;;8.40;100.00;101108.24;110095;1238;63563;-69
2023/10/30 03:27:57;;;;;;;8.40;4.10;;;;;;;8.33;100.00;101116.24;110024;1238;71655;-70
2023/10/30 03:30:26;;;;;;;9.90;3.90;;;;;;;8.37;100.00;101116.57;109958;1239;69878;-68
2023/10/30 03:32:55;;;;;;;7.20;3.60;;;;;;;8.26;100.00;101119.92;109920;1238;74825;-68
2023/10/30 03:35:23;;;;;;;7.80;4.10;;;;;;;8.12;100.00;101122.79;109994;1241;62243;-69
2023/10/30 03:37:52;;;;;;;9.10;3.90;;;;;;;8.04;100.00;101120.84;110083;1238;57777;-69
2023/10/30 03:40:22;;;;;;;7.30;4.10;;;;;;;7.96;100.00;101113.27;109951;1238;73493;-69
2023/10/30 03:42:51;;;;;;;9.40;4.80;;;;;;;8.03;100.00;101109.44;109927;1238;72466;-69
2023/10/30 03:45:19;;;;;;;6.80;4.30;;;;;;;8.01;100.00;101106.06;110025;1238;70749;-69
2023/10/30 03:47:48;;;;;;;10.20;4.60;;;;;;;8.03;100.00;101106.63;109998;1238;62724;-69
2023/10/30 03:50:17;;;;;;;8.70;4.80;;;;;;;8.04;100.00;101104.00;109799;1242;58363;-69
2023/10/30 03:52:46;;;;;;;11.40;4.90;;;;;;;8.04;100.00;101099.85;109945;1238;57788;-69
2023/10/30 03:55:15;;;;;;;9.50;4.50;;;;;;;8.03;100.00;101096.60;109998;1241;74163;-70
2023/10/30 03:57:45;;;;;;;10.20;4.90;;;;;;;8.01;100.00;101095.67;109938;1238;71499;-69
2023/10/30 04:00:14;;;;;;;9.10;4.60;;;;;;;8.07;100.00;101089.42;110050;1238;70192;-69
2023/10/30 04:02:43;;;;;;;8.30;4.50;;;;;;;8.11;100.00;101090.94;110015;1238;72931;-69
2023/10/30 04:05:12;;;;;;;12.50;5.10;;;;;;;8.13;100.00;101088.91;109797;1241;61449;-71
2023/10/30 04:07:40;;;;;;;9.70;5.00;;;;;;;8.17;100.00;101085.38;109774;1238;57910;-70
2023/10/30 04:10:09;;;;;;;11.00;5.10;;;;;;;8.16;100.00;101079.72;109905;1238;64409;-69
2023/10/30 04:12:38;;;;;;;13.40;4.90;;;;;;;8.16;100.00;101078.88;109880;1238;61414;-69
2023/10/30 04:15:07;;;;;;;12.00;5.20;;;;;;;8.12;100.00;101075.77;109873;1238;59871;-70
2023/10/30 04:17:36;;;;;;;9.50;5.50;;;;;;;8.10;100.00;101071.23;109896;1238;62339;-70
2023/10/30 04:20:05;;;;;;;11.10;5.70;;;;;;;8.09;100.00;101055.86;109764;1238;57827;-71
2023/10/30 04:22:34;;;;;;;10.20;5.00;;;;;;;8.15;100.00;101069.34;109883;1238;57706;-70
2023/10/30 04:25:06;;;;;;;12.10;5.30;;;;;;;8.09;100.00;101075.98;109884;1238;73201;-70
2023/10/30 04:27:34;;;;;;;10.10;4.90;;;;;;;8.07;100.00;101087.19;109613;1238;72284;-70
2023/10/30 04:30:04;;;;;;;9.60;4.30;;;;;;;8.07;100.00;101087.88;109925;1238;61759;-70
2023/10/30 04:32:33;;;;;;;8.10;4.50;;;;;;;8.06;100.00;101085.33;110003;1238;63139;-70
2023/10/30 04:35:02;;;;;;;11.30;4.70;;;;;;;8.06;100.00;101078.89;110016;1239;57816;-69
2023/10/30 04:37:31;;;;;;;10.70;4.50;;;;;;;8.09;100.00;101079.42;110042;1240;58289;-69
2023/10/30 04:40:00;;;;;;;32.10;15.50;;;;;;;8.11;100.00;101083.45;109991;1238;62738;-69
2023/10/30 04:42:29;;;;;;;31.30;14.40;;;;;;;8.11;100.00;101078.46;109927;1238;71334;-69
2023/10/30 04:44:57;;;;;;;10.30;5.40;;;;;;;8.13;100.00;101073.82;109870;1238;71285;-69
2023/10/30 04:47:26;;;;;;;11.80;5.40;;;;;;;8.18;100.00;101070.05;109892;1238;63664;-70
2023/10/30 04:49:55;;;;;;;13.80;6.60;;;;;;;8.31;100.00;101067.94;109779;1239;57719;-69
2023/10/30 04:52:25;;;;;;;11.20;5.40;;;;;;;8.41;100.00;101069.15;109888;1238;60146;-68
2023/10/30 04:54:54;;;;;;;16.30;5.10;;;;;;;8.49;100.00;101072.32;109876;1238;74841;-69
2023/10/30 04:57:22;;;;;;;11.50;5.00;;;;;;;8.56;100.00;101075.23;109880;1238;72642;-70
2023/10/30 04:59:51;;;;;;;9.20;4.80;;;;;;;8.57;100.00;101081.94;109906;1238;59416;-69
2023/10/30 05:02:20;;;;;;;14.20;5.20;;;;;;;8.55;100.00;101084.98;109862;1238;71556;-69
2023/10/30 05:04:49;;;;;;;13.20;4.90;;;;;;;8.54;100.00;101085.05;109810;1240;62419;-70
2023/10/30 05:07:17;;;;;;;12.20;5.50;;;;;;;8.65;100.00;101087.37;109855;1238;58050;-71
2023/10/30 05:09:46;;;;;;;15.20;5.40;;;;;;;8.72;100.00;101086.91;109869;1238;65225;-68
2023/10/30 05:12:16;;;;;;;17.20;5.90;;;;;;;8.66;100.00;101092.13;109838;1238;61623;-70
2023/10/30 05:14:45;;;;;;;14.30;5.80;;;;;;;8.63;100.00;101098.91;109857;1238;70696;-71
2023/10/30 05:17:13;;;;;;;14.70;5.50;;;;;;;8.61;100.00;101105.86;109749;1238;74093;-69
2023/10/30 05:19:42;;;;;;;13.90;6.10;;;;;;;8.58;100.00;101106.17;109834;1239;58427;-69
2023/10/30 05:22:11;;;;;;;14.60;5.90;;;;;;;8.59;100.00;101107.30;109766;1238;60983;-69
2023/10/30 05:24:39;;;;;;;11.20;5.30;;;;;;;8.63;100.00;101114.07;109895;1238;74745;-70
2023/10/30 05:27:08;;;;;;;13.70;5.10;;;;;;;8.71;100.00;101117.73;109893;1238;62427;-72
2023/10/30 05:29:37;;;;;;;12.10;6.40;;;;;;;8.82;100.00;101116.55;109889;1238;59827;-69
2023/10/30 05:32:07;;;;;;;13.00;6.60;;;;;;;8.95;100.00;101116.70;109854;1238;71803;-70
2023/10/30 05:34:36;;;;;;;15.60;6.50;;;;;;;9.05;100.00;101119.23;109871;1238;63021;-68
2023/10/30 05:37:09;;;;;;;14.60;5.90;;;;;;;9.14;100.00;101121.80;109892;1238;60804;-69
2023/10/30 05:39:38;;;;;;;14.70;6.30;;;;;;;9.29;100.00;101123.48;109815;1239;73014;-69
2023/10/30 05:42:07;;;;;;;14.40;7.30;;;;;;;9.53;100.00;101125.55;109791;1238;71154;-69
2023/10/30 05:44:36;;;;;;;18.40;7.10;;;;;;;9.73;100.00;101123.56;109867;1238;69855;-69
2023/10/30 05:47:05;;;;;;;17.70;7.10;;;;;;;9.88;100.00;101120.23;109898;1238;63650;-69
2023/10/30 05:49:34;;;;;;;12.50;6.50;;;;;;;10.01;100.00;101118.33;109988;1238;57808;-69
2023/10/30 05:52:04;;;;;;;17.80;6.80;;;;;;;10.16;100.00;101123.86;110049;1238;59378;-70
2023/10/30 05:54:32;;;;;;;21.20;8.00;;;;;;;10.34;100.00;101129.16;110049;1238;73384;-69
2023/10/30 05:57:01;;;;;;;20.40;8.40;;;;;;;10.49;100.00;101133.23;109804;1238;71577;-70
2023/10/30 05:59:31;;;;;;;20.00;7.90;;;;;;;10.63;100.00;101134.20;109760;1239;60353;-72
2023/10/30 06:01:59;;;;;;;17.00;8.80;;;;;;;10.80;100.00;101129.79;109864;1238;72996;-71
2023/10/30 06:04:28;;;;;;;27.00;8.90;;;;;;;10.95;100.00;101131.56;109843;1240;63553;-71
2023/10/30 06:06:57;;;;;;;18.10;8.40;;;;;;;11.08;100.00;101137.50;110034;1238;58293;-70
2023/10/30 06:09:27;;;;;;;20.40;9.20;;;;;;;11.22;100.00;101138.79;109989;1239;73198;-76
2023/10/30 06:11:55;;;;;;;20.50;9.20;;;;;;;11.32;100.00;101136.38;109960;1238;72727;-70
2023/10/30 06:14:24;;;;;;;18.90;7.70;;;;;;;11.47;100.00;101136.90;109956;1239;59474;-67
2023/10/30 06:16:53;;;;;;;16.30;8.00;;;;;;;11.61;100.00;101140.66;109748;1241;64295;-69
2023/10/30 06:19:23;;;;;;;15.70;7.50;;;;;;;11.76;100.00;101142.87;109947;1241;58293;-67
2023/10/30 06:21:51;;;;;;;15.70;6.60;;;;;;;11.99;100.00;101145.82;109914;1238;61000;-67
2023/10/30 06:24:20;;;;;;;16.50;7.30;;;;;;;12.07;100.00;101146.66;109951;1240;73217;-68
2023/10/30 06:26:49;;;;;;;15.90;7.00;;;;;;;12.16;100.00;101142.20;109973;1238;61689;-67
2023/10/30 06:29:18;;;;;;;12.90;7.40;;;;;;;12.25;100.00;101137.37;109974;1238;70341;-69
2023/10/30 06:31:46;;;;;;;13.80;7.20;;;;;;;12.27;100.00;101140.35;109882;1238;74366;-68
2023/10/30 06:34:15;;;;;;;13.10;6.60;;;;;;;12.29;100.00;101135.14;109970;1238;58644;-70
2023/10/30 06:36:46;;;;;;;15.10;7.60;;;;;;;12.40;100.00;101133.46;109973;1238;57686;-76
2023/10/30 06:39:19;;;;;;;14.20;7.70;;;;;;;12.48;100.00;101126.42;109966;1238;73566;-84
2023/10/30 06:41:48;;;;;;;16.30;7.40;;;;;;;12.51;100.00;101124.10;109807;1238;72509;-71
2023/10/30 06:44:17;;;;;;;13.70;6.30;;;;;;;12.54;100.00;101125.23;109872;1238;60257;-71
2023/10/30 06:46:50;;;;;;;16.50;7.00;;;;;;;12.61;100.00;101122.25;109800;1238;72979;-70
2023/10/30 06:49:19;;;;;;;12.90;5.70;;;;;;;12.66;100.00;101114.89;109889;1240;61461;-70
2023/10/30 06:51:47;;;;;;;10.70;5.90;;;;;;;12.84;100.00;101114.80;109709;1238;58461;-72
2023/10/30 06:54:16;;;;;;;19.40;6.40;;;;;;;13.03;100.00;101115.32;109623;1238;74724;-73
2023/10/30 06:56:45;;;;;;;10.90;5.30;;;;;;;13.23;100.00;101110.07;109762;1238;62337;-67
2023/10/30 06:59:15;;;;;;;11.60;5.80;;;;;;;13.42;100.00;101110.59;109796;1238;70058;-72
2023/10/30 07:01:47;;;;;;;12.30;6.10;;;;;;;13.55;100.00;101106.02;109626;1238;74262;-72
2023/10/30 07:04:16;;;;;;;15.90;6.10;;;;;;;13.72;100.00;101106.11;109750;1241;61895;-71
2023/10/30 07:06:45;;;;;;;12.10;5.10;;;;;;;13.95;100.00;101106.34;109651;1238;61508;-71
2023/10/30 07:09:15;;;;;;;12.20;5.10;;;;;;;14.18;100.00;101110.11;109891;1238;74577;-72
2023/10/30 07:11:44;;;;;;;12.30;5.00;;;;;;;14.27;100.00;101100.06;109761;1238;73137;-72
2023/10/30 07:14:13;;;;;;;12.30;5.30;;;;;;;14.47;100.00;101110.20;109649;1238;60436;-71
2023/10/30 07:16:42;;;;;;;15.20;6.00;;;;;;;14.72;100.00;101116.33;109544;1238;74749;-71
2023/10/30 07:19:31;;;;;;;15.10;5.80;;;;;;;14.94;100.00;101110.16;109835;1238;61943;-71
2023/10/30 07:22:02;;;;;;;11.40;4.90;;;;;;;15.00;100.00;101109.77;109490;1242;57843;-70
2023/10/30 07:24:31;;;;;;;10.00;4.80;;;;;;;15.11;100.00;101111.66;109777;1239;62773;-70
2023/10/30 07:27:00;;;;;;;12.00;5.30;;;;;;;15.23;100.00;101111.40;109675;1238;239036;-69
2023/10/30 07:29:29;;;;;;;13.90;6.00;;;;;;;15.39;100.00;101111.70;109896;1238;71102;-72
2023/10/30 07:31:58;;;;;;;14.00;6.00;;;;;;;15.56;100.00;101122.73;109745;1238;74568;-72
2023/10/30 07:34:26;;;;;;;12.90;5.30;;;;;;;15.72;100.00;101120.19;109715;1238;59750;-72
2023/10/30 07:36:55;;;;;;;13.70;5.90;;;;;;;15.80;100.00;101123.06;109849;1240;58344;-71
2023/10/30 07:39:24;;;;;;;16.20;5.70;;;;;;;15.95;100.00;101122.66;109839;1238;63853;-71
2023/10/30 07:41:53;;;;;;;13.50;5.40;;;;;;;16.10;100.00;101116.39;109974;1239;61733;-73
2023/10/30 07:44:22;;;;;;;18.30;5.90;;;;;;;16.28;100.00;101116.76;109866;1238;59771;-73
2023/10/30 07:46:51;;;;;;;15.50;6.50;;;;;;;16.35;100.00;101109.74;109980;1238;73061;-70
2023/10/30 07:49:20;;;;;;;11.70;5.90;;;;;;;16.52;100.00;101107.89;109871;1241;58255;-70
2023/10/30 07:51:48;;;;;;;15.60;5.90;;;;;;;16.58;100.00;101116.96;109986;1238;57694;-73
2023/10/30 07:54:17;;;;;;;12.40;5.00;;;;;;;16.75;99.93;101114.08;109969;1238;73761;-72
2023/10/30 07:56:46;;;;;;;17.20;6.70;;;;;;;16.94;98.93;101108.27;109882;1238;61982;-72
2023/10/30 07:59:15;;;;;;;10.70;5.30;;;;;;;17.19;98.21;101103.60;109888;1239;59959;-74
2023/10/30 08:01:45;;;;;;;16.40;6.20;;;;;;;17.47;96.53;101097.11;109859;1240;72302;-71
2023/10/30 08:04:14;;;;;;;14.20;5.40;;;;;;;17.67;96.29;101089.78;109795;1238;58322;-72
2023/10/30 08:06:43;;;;;;;15.70;6.10;;;;;;;17.82;94.59;101086.52;109715;1238;58551;-69
2023/10/30 08:09:12;;;;;;;11.70;5.00;;;;;;;17.99;96.14;101088.00;109798;1238;65307;-63
2023/10/30 08:11:41;;;;;;;19.60;5.20;;;;;;;17.99;92.22;101085.79;109793;1238;72419;-60
2023/10/30 08:14:10;;;;;;;12.60;4.70;;;;;;;18.08;93.19;101091.23;109816;1238;71180;-61
2023/10/30 08:16:39;;;;;;;12.90;4.70;;;;;;;18.12;92.02;101089.81;109826;1239;64071;-61
2023/10/30 08:19:08;;;;;;;13.90;4.70;;;;;;;18.19;92.08;101087.86;109834;1239;60407;-61
2023/10/30 08:21:36;;;;;;;14.80;5.00;;;;;;;18.33;91.80;101083.33;109856;1238;61498;-60
2023/10/30 08:24:06;;;;;;;21.70;6.60;;;;;;;18.48;91.44;101082.84;109864;1240;65111;-61
2023/10/30 08:26:35;;;;;;;15.10;5.40;;;;;;;18.66;89.82;101083.31;109789;1239;61629;-61
2023/10/30 08:29:04;;;;;;;13.10;6.00;;;;;;;18.89;91.04;101078.79;109779;1238;70437;-60
2023/10/30 08:31:32;;;;;;;12.60;5.30;;;;;;;19.08;90.23;101077.88;109746;1238;73349;-60
2023/10/30 08:34:01;;;;;;;16.20;5.40;;;;;;;19.26;88.82;101072.23;109839;1238;61640;-60
2023/10/30 08:36:30;;;;;;;18.70;5.10;;;;;;;19.45;90.88;101072.65;109778;1239;57768;-61
2023/10/30 08:38:59;;;;;;;13.20;4.40;;;;;;;19.61;88.04;101061.77;109848;1240;62772;-63
2023/10/30 08:41:28;;;;;;;11.40;4.50;;;;;;;19.75;85.45;101054.27;109933;1239;60855;-61
2023/10/30 08:43:57;;;;;;;12.30;4.50;;;;;;;19.92;80.38;101048.27;110014;1238;70418;-61
2023/10/30 08:46:25;;;;;;;12.80;4.70;;;;;;;20.20;75.30;101045.76;110036;1238;73281;-62
2023/10/30 08:48:56;;;;;;;11.30;4.60;;;;;;;20.35;73.75;101049.28;110050;1240;57873;-62
2023/10/30 08:51:24;;;;;;;11.60;4.00;;;;;;;20.44;69.69;101049.92;110036;1238;60945;-61
2023/10/30 08:53:53;;;;;;;11.20;4.00;;;;;;;20.56;68.75;101049.34;109978;1238;65854;-61
2023/10/30 08:56:22;;;;;;;11.20;4.40;;;;;;;20.69;68.09;101041.52;109943;1239;61983;-62
2023/10/30 08:58:51;;;;;;;10.30;4.60;;;;;;;20.92;68.92;101050.86;109989;1239;59873;-68
2023/10/30 09:01:20;;;;;;;15.00;4.80;;;;;;;21.14;71.87;101045.38;110055;1239;72923;-66
2023/10/30 09:03:48;;;;;;;15.20;5.40;;;;;;;21.30;68.01;101040.39;109829;1242;60765;-64
2023/10/30 09:06:17;;;;;;;11.00;4.50;;;;;;;21.39;64.79;101042.67;109934;1238;60499;-62
2023/10/30 09:08:46;;;;;;;11.90;5.20;;;;;;;21.50;63.84;101043.59;109956;1238;73922;-61
2023/10/30 09:11:15;;;;;;;10.80;4.90;;;;;;;21.68;64.45;101046.89;110052;1241;61368;-62
2023/10/30 09:13:44;;;;;;;9.10;4.40;;;;;;;21.86;63.67;101042.48;109954;1241;61014;-63
2023/10/30 09:16:14;;;;;;;9.20;4.10;;;;;;;21.89;60.05;101038.81;109946;1241;63070;-61
2023/10/30 09:18:43;;;;;;;12.20;4.80;;;;;;;21.98;61.24;101038.31;110025;1239;60235;-61
2023/10/30 09:21:12;;;;;;;12.60;4.90;;;;;;;22.04;59.83;101041.58;110043;1240;58328;-61
2023/10/30 09:23:42;;;;;;;11.70;4.70;;;;;;;22.05;59.78;101030.69;110006;1239;62787;-61
2023/10/30 09:26:11;;;;;;;10.40;4.70;;;;;;;22.20;59.04;101032.18;110048;1238;71346;-61
2023/10/30 09:28:40;;;;;;;10.60;4.80;;;;;;;22.18;57.41;101023.60;109822;1238;70713;-62
2023/10/30 09:31:08;;;;;;;21.00;5.40;;;;;;;22.30;59.18;101020.89;110026;1238;74275;-61
2023/10/30 09:33:37;;;;;;;11.90;4.90;;;;;;;22.33;57.03;101015.77;110001;1241;57860;-61
2023/10/30 09:36:07;;;;;;;17.20;5.20;;;;;;;22.46;56.58;101014.59;110064;1238;58134;-60
2023/10/30 09:38:35;;;;;;;10.00;4.40;;;;;;;22.67;56.51;101014.78;110017;1240;74283;-60
2023/10/30 09:41:05;;;;;;;10.20;4.70;;;;;;;22.85;53.65;101015.84;110063;1238;61343;-60
2023/10/30 09:43:34;;;;;;;11.50;4.80;;;;;;;22.91;51.90;101011.68;109769;1238;59149;-60
2023/10/30 09:46:07;;;;;;;11.00;4.80;;;;;;;22.92;51.54;101018.72;110041;1241;63032;-60
2023/10/30 09:48:37;;;;;;;11.90;3.90;;;;;;;23.11;50.41;101008.09;110063;1238;60079;-61
2023/10/30 09:51:08;;;;;;;10.10;3.90;;;;;;;23.26;50.36;101017.49;110080;1238;58267;-62
2023/10/30 09:53:39;;;;;;;7.30;3.40;;;;;;;23.38;49.01;101016.90;109809;1238;63546;-61
2023/10/30 09:56:08;;;;;;;12.70;3.70;;;;;;;23.49;48.68;101008.71;110012;1238;70982;-62
2023/10/30 09:58:40;;;;;;;8.50;3.50;;;;;;;23.63;46.94;101005.63;109882;1238;70928;-61
2023/10/30 10:01:09;;;;;;;9.20;3.50;;;;;;;23.70;46.26;101003.71;110032;1238;62777;-62
2023/10/30 10:03:38;;;;;;;7.80;3.70;;;;;;;23.70;46.39;100999.77;110016;1238;58379;-61
2023/10/30 10:06:08;;;;;;;7.30;3.60;;;;;;;23.75;46.26;101004.84;109969;1241;58347;-61
2023/10/30 10:08:36;;;;;;;9.10;4.00;;;;;;;23.79;45.86;101004.18;110081;1238;74416;-60
2023/10/30 10:11:05;;;;;;;7.80;3.70;;;;;;;23.91;45.99;101000.05;110011;1238;62165;-63
2023/10/30 10:13:37;;;;;;;9.20;3.90;;;;;;;24.04;45.91;101001.27;110044;1238;69636;-72
2023/10/30 10:16:30;;;;;;;10.00;3.60;;;;;;;24.18;46.14;100999.67;109950;1239;63202;-71
2023/10/30 10:18:59;;;;;;;8.40;3.30;;;;;;;24.29;45.67;100993.08;109830;1242;61063;-72
2023/10/30 10:21:29;;;;;;;8.40;4.10;;;;;;;24.64;44.35;100987.45;110096;1240;57636;-72
2023/10/30 10:23:58;;;;;;;11.90;4.00;;;;;;;24.84;44.34;100989.67;109805;1238;63403;-73
2023/10/30 10:26:30;;;;;;;8.40;4.10;;;;;;;25.39;44.29;100984.33;109804;1238;72173;-71
2023/10/30 10:28:59;;;;;;;8.50;3.50;;;;;;;25.62;41.85;100983.23;110065;1238;59920;-70
2023/10/30 10:31:29;;;;;;;10.10;3.90;;;;;;;25.71;41.81;100984.40;110025;1238;73967;-71
2023/10/30 10:33:58;;;;;;;6.90;2.90;;;;;;;25.68;42.11;100980.70;109972;1238;58294;-71
2023/10/30 10:36:31;;;;;;;8.30;3.30;;;;;;;26.02;40.52;100973.56;109821;1238;57756;-70
2023/10/30 10:39:00;;;;;;;6.60;3.10;;;;;;;26.27;39.55;100975.59;110064;1238;63756;-70
2023/10/30 10:41:29;;;;;;;7.70;3.40;;;;;;;25.93;40.08;100964.31;110111;1238;72252;-71
2023/10/30 10:44:00;;;;;;;6.40;2.60;;;;;;;25.78;40.11;100955.12;110016;1238;61255;-71
2023/10/30 10:46:29;;;;;;;7.20;2.60;;;;;;;25.80;40.09;100951.48;109885;1238;63101;-70
2023/10/30 10:48:58;;;;;;;5.60;2.30;;;;;;;25.86;39.98;100948.02;110112;1240;58301;-71
2023/10/30 10:51:38;;;;;;;6.20;2.50;;;;;;;26.14;39.42;100943.19;110083;1238;58132;-72
2023/10/30 10:54:20;;;;;;;5.80;2.80;;;;;;;26.01;39.74;100945.09;110003;1238;63133;-72
2023/10/30 10:56:56;;;;;;;5.50;2.00;;;;;;;26.15;40.47;100944.23;110113;1238;60838;-70
2023/10/30 10:59:28;;;;;;;4.70;1.60;;;;;;;26.67;38.42;100951.77;109978;1238;69592;-72
2023/10/30 11:01:59;;;;;;;3.90;2.00;;;;;;;26.76;38.15;100948.52;109830;1238;73783;-73
2023/10/30 11:04:29;;;;;;;4.70;2.50;;;;;;;26.87;38.02;100944.23;109993;1239;58313;-71
2023/10/30 11:07:08;;;;;;;8.00;2.50;;;;;;;26.86;38.45;100950.96;110086;1238;57689;-72
2023/10/30 11:09:49;;;;;;;6.30;2.30;;;;;;;27.11;37.96;100957.24;109823;1238;74094;-71
2023/10/30 11:12:43;;;;;;;5.00;2.10;;;;;;;27.46;37.48;100955.43;109998;1238;71639;-72
2023/10/30 11:15:25;;;;;;;7.70;2.70;;;;;;;27.69;36.77;100957.62;110050;1238;60284;-71
2023/10/30 11:18:21;;;;;;;7.00;2.70;;;;;;;27.67;36.53;100961.04;109855;1238;63238;-73
2023/10/30 11:21:17;;;;;;;7.00;2.70;;;;;;;27.76;36.15;100948.83;109796;1238;58398;-72